Robert Burton — WDC7911 — position and weather

sailwx.info

Track history (hours):
 
Tides and Currents Weather Stations Pressure Air Temp Water Temp Dewpoint Dewpoint Depression Visibility Wind Speed Wind Dir Waves Ship Positions

Robert Burton

Owner: Norfolk Tug Company, Norfolk, VA. More information available from US FCC via Universal Licensing System and Coast Guard Vessel Documentation Center.

Last reported at 2017-Oct-19 18:00 UTC. Time now 2017-Oct-19 18:20 UTC.
Position N 40°39' W 074°06'.

Length 25 m; draft 3 m.

Type: Tug. MMSI: 367078850.

Date/timePositionNaut miles runAvg speedWind from/ knotsBaromVisibWave heightAir tempDewpointWater temp
2017-Oct-19 18:00N 40°39' W 074°06'3 6.3
2017-Oct-19 17:29N 40°39' W 074°10'2 3.2
2017-Oct-19 17:00N 40°38' W 074°12'0 0.0
2017-Oct-19 16:30N 40°38' W 074°12'0 0.0
2017-Oct-19 16:00N 40°38' W 074°12'0 0.0
2017-Oct-19 15:29N 40°38' W 074°12'0 0.0
2017-Oct-19 15:00N 40°38' W 074°12'0 0.0
2017-Oct-19 14:29N 40°38' W 074°12'0 0.0
2017-Oct-19 14:00N 40°38' W 074°12'0 0.0
2017-Oct-19 13:30N 40°38' W 074°12'0 0.0
2017-Oct-19 13:00N 40°38' W 074°12'0 0.0
2017-Oct-19 12:29N 40°38' W 074°12'0 0.0
2017-Oct-19 12:00N 40°38' W 074°12'0 0.0
2017-Oct-19 11:30N 40°38' W 074°12'0 0.0
2017-Oct-19 11:00N 40°38' W 074°12'0 0.0
2017-Oct-19 10:30N 40°38' W 074°12'0 0.0
2017-Oct-19 10:00N 40°38' W 074°12'0 0.0
2017-Oct-19 09:30N 40°38' W 074°12'0 0.0
2017-Oct-19 09:00N 40°38' W 074°12'0 0.0
2017-Oct-19 08:30N 40°38' W 074°12'0 0.0
2017-Oct-19 08:00N 40°38' W 074°12'0 0.0
2017-Oct-19 07:30N 40°38' W 074°12'0 0.0
2017-Oct-19 07:00N 40°38' W 074°12'0 0.0
2017-Oct-19 06:30N 40°38' W 074°12'0 0.0
2017-Oct-19 06:00N 40°38' W 074°12'0 0.0
2017-Oct-19 05:30N 40°38' W 074°12'0 0.0
2017-Oct-19 05:00N 40°38' W 074°12'0 0.0
2017-Oct-19 04:30N 40°38' W 074°12'0 0.0
2017-Oct-19 04:00N 40°38' W 074°12'0 0.0
2017-Oct-19 03:30N 40°38' W 074°12'0 0.0
2017-Oct-19 02:59N 40°38' W 074°12'0 0.0
2017-Oct-19 02:30N 40°38' W 074°12'0 0.0
2017-Oct-19 02:00N 40°38' W 074°12'0 0.0
2017-Oct-19 01:30N 40°38' W 074°12'0 0.0
2017-Oct-19 01:00N 40°38' W 074°12'0 0.0
2017-Oct-19 00:29N 40°38' W 074°12'0 0.0
2017-Oct-19 00:00N 40°38' W 074°12'0 0.0
2017-Oct-18 23:29N 40°38' W 074°12'0 0.0
2017-Oct-18 22:57N 40°38' W 074°12'0 0.0
2017-Oct-18 22:29N 40°38' W 074°12'0 0.0
2017-Oct-18 22:00N 40°38' W 074°12'0 0.0
2017-Oct-18 21:30N 40°38' W 074°12'0 0.0
2017-Oct-18 21:00N 40°38' W 074°12'0 0.0
2017-Oct-18 20:30N 40°38' W 074°12'0 0.0
2017-Oct-18 20:00N 40°38' W 074°12'0 0.0
2017-Oct-18 19:30N 40°38' W 074°12'2 3.9
2017-Oct-18 19:00N 40°39' W 074°09'2 4.8
2017-Oct-18 18:30N 40°39' W 074°06'2 3.3
2017-Oct-18 18:00N 40°39' W 074°04'2 4.7
2017-Oct-18 17:30N 40°40' W 074°01'1 1.9
2017-Oct-18 17:00N 40°40' W 073°60'0 0.0
2017-Oct-18 16:30N 40°40' W 073°60'0 0.0
2017-Oct-18 16:00N 40°40' W 073°60'0 0.0
2017-Oct-18 15:30N 40°40' W 073°60'0 0.0
2017-Oct-18 15:00N 40°40' W 073°60'0 0.0
2017-Oct-18 14:00N 40°40' W 073°60'0 0.0
2017-Oct-18 13:30N 40°40' W 073°60'0 0.0
2017-Oct-18 13:00N 40°40' W 073°60'0 0.0
2017-Oct-18 12:30N 40°40' W 073°60'0 0.0
2017-Oct-18 12:00N 40°40' W 073°60'0 0.0
2017-Oct-18 11:30N 40°40' W 073°60'0 0.0
2017-Oct-18 11:00N 40°40' W 073°60'0 0.0
2017-Oct-18 10:30N 40°40' W 073°60'0 0.0
2017-Oct-18 10:00N 40°40' W 073°60'0 0.0
2017-Oct-18 09:30N 40°40' W 073°60'0 0.0
2017-Oct-18 09:00N 40°40' W 073°60'0 0.0
2017-Oct-18 08:30N 40°40' W 073°60'0 0.0
2017-Oct-18 08:00N 40°40' W 073°60'0 0.0
2017-Oct-18 07:30N 40°40' W 073°60'0 0.0
2017-Oct-18 07:00N 40°40' W 073°60'0 0.0
2017-Oct-18 06:30N 40°40' W 073°60'0 0.0
2017-Oct-18 06:00N 40°40' W 073°60'0 0.0
2017-Oct-18 05:30N 40°40' W 073°60'0 0.0
2017-Oct-18 05:00N 40°40' W 073°60'0 0.0
2017-Oct-18 04:30N 40°40' W 073°60'0 0.0
2017-Oct-18 04:00N 40°40' W 073°60'0 0.0
2017-Oct-18 03:30N 40°40' W 073°60'0 0.0
2017-Oct-18 03:00N 40°40' W 073°60'0 0.0
2017-Oct-18 02:30N 40°40' W 073°60'0 0.0
2017-Oct-18 02:00N 40°40' W 073°60'0 0.0
2017-Oct-18 01:31N 40°40' W 073°60'0 0.1
2017-Oct-18 01:00N 40°40' W 073°60'0 0.0
2017-Oct-18 00:30N 40°40' W 073°60'0 0.0
2017-Oct-18 00:00N 40°40' W 073°60'2 3.0
2017-Oct-17 23:30N 40°39' W 074°02'3 6.0
2017-Oct-17 23:00N 40°39' W 074°05'3 5.7
2017-Oct-17 22:24N 40°39' W 074°10'1 3.6
2017-Oct-17 22:00N 40°38' W 074°12'0 0.1
2017-Oct-17 21:30N 40°38' W 074°12'0 0.1
2017-Oct-17 21:00N 40°38' W 074°12'0 0.0
2017-Oct-17 20:30N 40°38' W 074°12'0 0.0
2017-Oct-17 20:00N 40°38' W 074°12'0 0.0
2017-Oct-17 19:30N 40°38' W 074°12'0 0.0
2017-Oct-17 19:00N 40°38' W 074°12'0 0.0
2017-Oct-17 18:30N 40°38' W 074°12'2 4.1
2017-Oct-17 18:00N 40°39' W 074°09'2 4.7
2017-Oct-17 17:30N 40°39' W 074°06'2 4.3
2017-Oct-17 17:00N 40°39' W 074°03'3 5.0
2017-Oct-17 16:30N 40°40' W 074°00'0 0.7
2017-Oct-17 16:00N 40°40' W 073°60'0 0.0
2017-Oct-17 15:30N 40°40' W 073°60'0 0.0
2017-Oct-17 15:00N 40°40' W 073°60'0 0.0
2017-Oct-17 14:30N 40°40' W 073°60'0 0.0
2017-Oct-17 14:00N 40°40' W 073°60'0 0.0
2017-Oct-17 13:30N 40°40' W 073°60'0 0.0
2017-Oct-17 13:00N 40°40' W 073°60'0 0.0
2017-Oct-17 12:30N 40°40' W 073°60'0 0.0
2017-Oct-17 12:00N 40°40' W 073°60'0 0.0
2017-Oct-17 11:30N 40°40' W 073°60'0 0.0
2017-Oct-17 11:00N 40°40' W 073°60'0 0.0
2017-Oct-17 10:30N 40°40' W 073°60'0 0.0
2017-Oct-17 10:00N 40°40' W 073°60'0 0.0
2017-Oct-17 09:30N 40°40' W 073°60'0 0.0
2017-Oct-17 09:00N 40°40' W 073°60'0 0.0
2017-Oct-17 08:30N 40°40' W 073°60'0 0.0
2017-Oct-17 08:00N 40°40' W 073°60'0 0.0
2017-Oct-17 07:30N 40°40' W 073°60'0 0.0
2017-Oct-17 07:00N 40°40' W 073°60'0 0.0
2017-Oct-17 06:30N 40°40' W 073°60'0 0.0
2017-Oct-17 06:00N 40°40' W 073°60'0 0.0
2017-Oct-17 05:30N 40°40' W 073°60'0 0.0
2017-Oct-17 05:00N 40°40' W 073°60'0 0.0
2017-Oct-17 04:30N 40°40' W 073°60'0 0.0
2017-Oct-17 04:00N 40°40' W 073°60'0 0.0
2017-Oct-17 03:30N 40°40' W 073°60'0 0.0
2017-Oct-17 03:00N 40°40' W 073°60'0 0.0
2017-Oct-17 02:30N 40°40' W 073°60'0 0.0
2017-Oct-17 02:00N 40°40' W 073°60'0 0.0
2017-Oct-17 01:30N 40°40' W 073°60'0 0.0
2017-Oct-17 01:00N 40°40' W 073°60'0 0.0
2017-Oct-17 00:30N 40°40' W 073°60'0 0.0
2017-Oct-17 00:00N 40°40' W 073°60'0 0.0
2017-Oct-16 23:30N 40°40' W 073°60'0 0.0
2017-Oct-16 23:00N 40°40' W 073°60'0 0.0
2017-Oct-16 22:30N 40°40' W 073°60'0 0.0
2017-Oct-16 22:00N 40°40' W 073°60'0 0.0
2017-Oct-16 21:30N 40°40' W 073°60'0 0.0
2017-Oct-16 21:00N 40°40' W 073°60'1 2.3
2017-Oct-16 20:30N 40°40' W 074°01'3 5.6
2017-Oct-16 20:00N 40°39' W 074°05'2 4.4
2017-Oct-16 19:28N 40°39' W 074°08'2 5.2
2017-Oct-16 18:59N 40°39' W 074°11'1 1.3
2017-Oct-16 18:30N 40°38' W 074°12'0 0.0
2017-Oct-16 18:00N 40°38' W 074°12'0 0.0
2017-Oct-16 17:30N 40°38' W 074°12'0 0.0
2017-Oct-16 17:00N 40°38' W 074°12'0 0.0
2017-Oct-16 16:30N 40°38' W 074°12'0 0.0
2017-Oct-16 16:00N 40°38' W 074°12'0 0.0
2017-Oct-16 15:29N 40°38' W 074°12'0 0.0
2017-Oct-16 15:00N 40°38' W 074°12'0 0.0
2017-Oct-16 14:00N 40°38' W 074°12'0 0.0
2017-Oct-16 13:30N 40°38' W 074°12'0 0.0
2017-Oct-16 13:00N 40°38' W 074°12'0 0.0
2017-Oct-16 12:30N 40°38' W 074°12'0 0.0
2017-Oct-16 12:00N 40°38' W 074°12'0 0.0
2017-Oct-16 11:30N 40°38' W 074°12'0 0.0
2017-Oct-16 11:00N 40°38' W 074°12'0 0.0
2017-Oct-16 10:30N 40°38' W 074°12'0 0.0
2017-Oct-16 10:00N 40°38' W 074°12'0 0.0
2017-Oct-16 09:30N 40°38' W 074°12'0 0.0
2017-Oct-16 09:00N 40°38' W 074°12'0 0.0
2017-Oct-16 08:30N 40°38' W 074°12'0 0.0
2017-Oct-16 08:00N 40°38' W 074°12'0 0.0
2017-Oct-16 07:30N 40°38' W 074°12'0 0.0
2017-Oct-16 07:00N 40°38' W 074°12'0 0.0
2017-Oct-16 06:30N 40°38' W 074°12'0 0.0
2017-Oct-16 06:00N 40°38' W 074°12'0 0.0
2017-Oct-16 05:30N 40°38' W 074°12'0 0.0
2017-Oct-16 05:00N 40°38' W 074°12'0 0.0
2017-Oct-16 04:30N 40°38' W 074°12'0 0.0
2017-Oct-16 04:00N 40°38' W 074°12'0 0.0
2017-Oct-16 03:30N 40°38' W 074°12'0 0.0
2017-Oct-16 03:00N 40°38' W 074°12'0 0.0
2017-Oct-16 02:29N 40°38' W 074°12'0 0.0
2017-Oct-16 02:00N 40°38' W 074°12'0 0.0
2017-Oct-16 01:30N 40°38' W 074°12'0 0.4
2017-Oct-16 01:00N 40°38' W 074°12'0 0.0
2017-Oct-16 00:30N 40°38' W 074°12'0 0.0
2017-Oct-16 00:00N 40°38' W 074°12'0 0.0
2017-Oct-15 23:30N 40°38' W 074°12'0 0.0
2017-Oct-15 23:00N 40°38' W 074°12'0 0.0
2017-Oct-15 22:30N 40°38' W 074°12'0 0.0
2017-Oct-15 22:00N 40°38' W 074°12'0 0.0
2017-Oct-15 21:30N 40°38' W 074°12'0 0.0
2017-Oct-15 21:00N 40°38' W 074°12'0 0.0
2017-Oct-15 20:29N 40°38' W 074°12'0 0.0
2017-Oct-15 20:00N 40°38' W 074°12'0 0.0
2017-Oct-15 19:30N 40°38' W 074°12'0 0.0
2017-Oct-15 19:00N 40°38' W 074°12'0 0.0
2017-Oct-15 18:30N 40°38' W 074°12'0 0.0
2017-Oct-15 18:00N 40°38' W 074°12'0 0.0
2017-Oct-15 17:29N 40°38' W 074°12'0 0.0
2017-Oct-15 17:00N 40°38' W 074°12'0 0.0
2017-Oct-15 16:30N 40°38' W 074°12'0 0.0
2017-Oct-15 16:00N 40°38' W 074°12'0 0.0
2017-Oct-15 15:30N 40°38' W 074°12'0 0.0
2017-Oct-15 15:00N 40°38' W 074°12'0 0.0
2017-Oct-15 14:00N 40°38' W 074°12'0 0.0
2017-Oct-15 13:30N 40°38' W 074°12'0 0.0
2017-Oct-15 13:00N 40°38' W 074°12'0 0.0
2017-Oct-15 12:30N 40°38' W 074°12'0 0.0
2017-Oct-15 12:00N 40°38' W 074°12'0 0.4
2017-Oct-15 11:30N 40°38' W 074°12'0 0.0
2017-Oct-15 11:00N 40°38' W 074°12'0 0.0
2017-Oct-15 10:30N 40°38' W 074°12'0 0.0
2017-Oct-15 10:00N 40°38' W 074°12'0 0.0
2017-Oct-15 09:30N 40°38' W 074°12'0 0.0
2017-Oct-15 09:00N 40°38' W 074°12'0 0.0
2017-Oct-15 08:30N 40°38' W 074°12'0 0.0
2017-Oct-15 08:00N 40°38' W 074°12'0 0.0
2017-Oct-15 07:30N 40°38' W 074°12'0 0.0
2017-Oct-15 07:00N 40°38' W 074°12'0 0.0
2017-Oct-15 06:30N 40°38' W 074°12'0 0.0
2017-Oct-15 06:00N 40°38' W 074°12'0 0.0
2017-Oct-15 05:30N 40°38' W 074°12'0 0.0
2017-Oct-15 05:00N 40°38' W 074°12'0 0.0
2017-Oct-15 04:30N 40°38' W 074°12'0 0.0
2017-Oct-15 04:00N 40°38' W 074°12'0 0.0
2017-Oct-15 03:30N 40°38' W 074°12'0 0.0
2017-Oct-15 03:00N 40°38' W 074°12'0 0.0
2017-Oct-15 02:30N 40°38' W 074°12'0 0.0
2017-Oct-15 02:00N 40°38' W 074°12'0 0.0
2017-Oct-15 01:30N 40°38' W 074°12'0 0.0
2017-Oct-15 01:00N 40°38' W 074°12'0 0.0
2017-Oct-15 00:30N 40°38' W 074°12'0 0.0
2017-Oct-15 00:00N 40°38' W 074°12'0 0.0
2017-Oct-14 23:30N 40°38' W 074°12'0 0.0
2017-Oct-14 23:00N 40°38' W 074°12'0 0.0
2017-Oct-14 22:29N 40°38' W 074°12'0 0.0
2017-Oct-14 22:00N 40°38' W 074°12'0 0.0
2017-Oct-14 21:30N 40°38' W 074°12'0 0.0
2017-Oct-14 20:59N 40°38' W 074°12'0 0.0
2017-Oct-14 20:30N 40°38' W 074°12'0 0.0
2017-Oct-14 20:00N 40°38' W 074°12'0 0.0
2017-Oct-14 19:29N 40°38' W 074°12'0 0.0
2017-Oct-14 19:00N 40°38' W 074°12'1 2.6
2017-Oct-14 18:30N 40°39' W 074°10'5 9.1
2017-Oct-14 18:00N 40°39' W 074°04'4 8.4
2017-Oct-14 17:30N 40°36' W 074°01'0 0.9
2017-Oct-14 17:00N 40°36' W 074°02'4 8.0
2017-Oct-14 16:30N 40°39' W 074°05'3 7.0
2017-Oct-14 16:00N 40°39' W 074°09'2 4.0
2017-Oct-14 15:30N 40°38' W 074°12'1 2.1
2017-Oct-14 15:00N 40°39' W 074°11'2 4.8
2017-Oct-14 14:30N 40°39' W 074°08'2 4.6
2017-Oct-14 14:00N 40°39' W 074°05'2 4.8
2017-Oct-14 13:30N 40°40' W 074°01'1 2.6
2017-Oct-14 13:00N 40°40' W 073°60'0 0.0
2017-Oct-14 12:30N 40°40' W 073°60'0 0.0
2017-Oct-14 12:00N 40°40' W 073°60'0 0.0
2017-Oct-14 11:30N 40°40' W 073°60'0 0.0
2017-Oct-14 11:00N 40°40' W 073°60'0 0.0
2017-Oct-14 10:30N 40°40' W 073°60'0 0.0
2017-Oct-14 10:00N 40°40' W 073°60'0 0.0
2017-Oct-14 09:30N 40°40' W 073°60'0 0.0
2017-Oct-14 09:00N 40°40' W 073°60'0 0.0
2017-Oct-14 08:30N 40°40' W 073°60'0 0.0
2017-Oct-14 08:00N 40°40' W 073°60'0 0.0
2017-Oct-14 07:30N 40°40' W 073°60'0 0.0
2017-Oct-14 07:00N 40°40' W 073°60'0 0.0
2017-Oct-14 06:30N 40°40' W 073°60'0 0.0
2017-Oct-14 06:00N 40°40' W 073°60'0 0.0
2017-Oct-14 05:30N 40°40' W 073°60'0 0.0
2017-Oct-14 05:00N 40°40' W 073°60'0 0.0
2017-Oct-14 04:30N 40°40' W 073°60'0 0.0
2017-Oct-14 04:00N 40°40' W 073°60'0 0.0
2017-Oct-14 03:30N 40°40' W 073°60'0 0.0
2017-Oct-14 03:00N 40°40' W 073°60'0 0.0
2017-Oct-14 02:30N 40°40' W 073°60'0 0.0
2017-Oct-14 01:57N 40°40' W 073°60'0 0.0
2017-Oct-14 01:29N 40°40' W 073°60'0 0.0
2017-Oct-14 00:58N 40°40' W 073°60'0 0.0
2017-Oct-14 00:29N 40°40' W 073°60'0 0.0
2017-Oct-13 23:59N 40°40' W 073°60'0 0.0
2017-Oct-13 23:30N 40°40' W 073°60'0 0.0
2017-Oct-13 23:00N 40°40' W 073°60'0 0.0
2017-Oct-13 22:30N 40°40' W 073°60'0 0.0
2017-Oct-13 22:00N 40°40' W 073°60'0 0.0
2017-Oct-13 21:30N 40°40' W 073°60'1 1.3
2017-Oct-13 21:00N 40°40' W 074°01'3 5.2
2017-Oct-13 20:28N 40°39' W 074°04'3 6.0
2017-Oct-13 20:00N 40°39' W 074°08'3 6.0
2017-Oct-13 19:30N 40°38' W 074°12'0 0.2
2017-Oct-13 19:00N 40°38' W 074°12'0 0.1
2017-Oct-13 18:30N 40°38' W 074°12'0 0.0
2017-Oct-13 18:00N 40°38' W 074°12'0 0.0
2017-Oct-13 17:30N 40°38' W 074°12'0 0.0
2017-Oct-13 17:00N 40°38' W 074°12'0 0.0
2017-Oct-13 16:30N 40°38' W 074°12'0 0.0
2017-Oct-13 15:58N 40°38' W 074°12'0 0.0
2017-Oct-13 15:30N 40°38' W 074°12'0 0.0
2017-Oct-13 15:00N 40°38' W 074°12'0 0.0
2017-Oct-13 14:30N 40°38' W 074°12'0 0.0
2017-Oct-13 14:00N 40°38' W 074°12'0 0.0
2017-Oct-13 13:30N 40°38' W 074°12'0 0.0
2017-Oct-13 13:00N 40°38' W 074°12'0 0.0
2017-Oct-13 12:30N 40°38' W 074°12'0 0.0
2017-Oct-13 12:00N 40°38' W 074°12'0 0.0
2017-Oct-13 11:30N 40°38' W 074°12'0 0.0
2017-Oct-13 11:00N 40°38' W 074°12'0 0.0
2017-Oct-13 10:30N 40°38' W 074°12'0 0.0
2017-Oct-13 10:00N 40°38' W 074°12'0 0.0
2017-Oct-13 09:30N 40°38' W 074°12'0 0.0
2017-Oct-13 09:00N 40°38' W 074°12'0 0.0
2017-Oct-13 08:29N 40°38' W 074°12'0 0.0
2017-Oct-13 08:00N 40°38' W 074°12'0 0.0
2017-Oct-13 07:30N 40°38' W 074°12'0 0.0
2017-Oct-13 07:00N 40°38' W 074°12'0 0.0
2017-Oct-13 06:30N 40°38' W 074°12'0 0.0
2017-Oct-13 06:00N 40°38' W 074°12'0 0.0
2017-Oct-13 05:30N 40°38' W 074°12'0 0.0
2017-Oct-13 05:00N 40°38' W 074°12'0 0.0
2017-Oct-13 04:30N 40°38' W 074°12'0 0.0
2017-Oct-13 04:00N 40°38' W 074°12'0 0.0
2017-Oct-13 03:30N 40°38' W 074°12'0 0.0
2017-Oct-13 02:57N 40°38' W 074°12'0 0.0
2017-Oct-13 02:30N 40°38' W 074°12'0 0.0
2017-Oct-13 01:59N 40°38' W 074°12'0 0.0
2017-Oct-13 01:24N 40°38' W 074°12'0 0.0
2017-Oct-13 01:00N 40°38' W 074°12'1 2.1
2017-Oct-13 00:30N 40°39' W 074°11'2 4.4
2017-Oct-13 00:00N 40°39' W 074°08'2 3.8
2017-Oct-12 23:30N 40°39' W 074°05'2 3.7
2017-Oct-12 23:00N 40°39' W 074°03'2 5.0
2017-Oct-12 22:30N 40°40' W 073°60'0 0.0
2017-Oct-12 22:00N 40°40' W 073°60'0 0.0
2017-Oct-12 21:30N 40°40' W 073°60'0 0.0
2017-Oct-12 21:00N 40°40' W 073°60'0 0.0
2017-Oct-12 20:30N 40°40' W 073°60'0 0.0
2017-Oct-12 20:00N 40°40' W 073°60'0 0.0
2017-Oct-12 19:30N 40°40' W 073°60'0 0.0
2017-Oct-12 19:00N 40°40' W 073°60'0 0.0
2017-Oct-12 18:30N 40°40' W 073°60'0 0.1
2017-Oct-12 18:00N 40°40' W 073°60'0 0.0
2017-Oct-12 17:30N 40°40' W 073°60'1 2.2
2017-Oct-12 17:00N 40°40' W 074°01'3 5.3
2017-Oct-12 16:30N 40°39' W 074°05'2 4.2
2017-Oct-12 15:58N 40°39' W 074°07'3 4.9
2017-Oct-12 15:25N 40°39' W 074°11'1 1.8
2017-Oct-12 14:59N 40°38' W 074°12'0 0.0
2017-Oct-12 14:30N 40°38' W 074°12'0 0.0
2017-Oct-12 14:00N 40°38' W 074°12'0 0.0
2017-Oct-12 13:30N 40°38' W 074°12'0 0.0
2017-Oct-12 13:00N 40°38' W 074°12'0 0.0
2017-Oct-12 12:30N 40°38' W 074°12'0 0.0
2017-Oct-12 12:00N 40°38' W 074°12'0 0.0
2017-Oct-12 11:30N 40°38' W 074°12'0 0.0
2017-Oct-12 11:00N 40°38' W 074°12'0 0.0
2017-Oct-12 10:30N 40°38' W 074°12'0 0.0
2017-Oct-12 10:00N 40°38' W 074°12'0 0.0
2017-Oct-12 09:30N 40°38' W 074°12'0 0.0
2017-Oct-12 09:00N 40°38' W 074°12'0 0.0
2017-Oct-12 08:30N 40°38' W 074°12'0 0.0
2017-Oct-12 08:00N 40°38' W 074°12'0 0.0
2017-Oct-12 07:30N 40°38' W 074°12'0 0.0
2017-Oct-12 07:00N 40°38' W 074°12'0 0.0
2017-Oct-12 06:30N 40°38' W 074°12'0 0.0
2017-Oct-12 06:00N 40°38' W 074°12'0 0.0
2017-Oct-12 05:30N 40°38' W 074°12'0 0.0
2017-Oct-12 05:00N 40°38' W 074°12'0 0.0
2017-Oct-12 04:30N 40°38' W 074°12'0 0.0
2017-Oct-12 04:00N 40°38' W 074°12'0 0.0
2017-Oct-12 03:30N 40°38' W 074°12'0 0.0
2017-Oct-12 03:00N 40°38' W 074°12'0 0.0
2017-Oct-12 02:30N 40°38' W 074°12'0 0.0
2017-Oct-12 02:00N 40°38' W 074°12'0 0.0
2017-Oct-12 01:30N 40°38' W 074°12'0 0.0
2017-Oct-12 01:00N 40°38' W 074°12'0 0.0
2017-Oct-12 00:30N 40°38' W 074°12'0 0.1
2017-Oct-12 00:00N 40°38' W 074°12'2 4.4
2017-Oct-11 23:30N 40°39' W 074°09'2 4.3
2017-Oct-11 23:00N 40°39' W 074°06'2 4.2
2017-Oct-11 22:29N 40°39' W 074°03'3 5.1
2017-Oct-11 22:00N 40°40' W 074°00'0 0.5
2017-Oct-11 21:30N 40°40' W 073°60'0 0.0
2017-Oct-11 21:00N 40°40' W 073°60'0 0.0
2017-Oct-11 20:30N 40°40' W 073°60'0 0.0
2017-Oct-11 20:00N 40°40' W 073°60'0 0.0
2017-Oct-11 19:30N 40°40' W 073°60'0 0.0
2017-Oct-11 19:00N 40°40' W 073°60'0 0.0
2017-Oct-11 18:30N 40°40' W 073°60'0 0.0
2017-Oct-11 18:00N 40°40' W 073°60'0 0.0
2017-Oct-11 17:30N 40°40' W 073°60'0 0.0
2017-Oct-11 17:00N 40°40' W 073°60'9 0.5
2017-Oct-11 00:00N 40°38' W 074°12'0 0.0
2017-Oct-10 23:30N 40°38' W 074°12'0 0.0
2017-Oct-10 23:00N 40°38' W 074°12'0 0.0
2017-Oct-10 22:30N 40°38' W 074°12'0 0.0
2017-Oct-10 22:00N 40°38' W 074°12'0 0.0
2017-Oct-10 21:30N 40°38' W 074°12'0 0.1
2017-Oct-10 20:59N 40°38' W 074°12'0 0.0
2017-Oct-10 20:30N 40°38' W 074°12'0 0.0
2017-Oct-10 20:00N 40°38' W 074°12'1 1.3
2017-Oct-10 19:30N 40°39' W 074°11'2 4.6
2017-Oct-10 19:00N 40°39' W 074°08'2 3.7
2017-Oct-10 18:30N 40°39' W 074°06'2 3.8
2017-Oct-10 18:00N 40°39' W 074°03'2 4.5
2017-Oct-10 17:30N 40°40' W 074°01'1 1.2
2017-Oct-10 17:01N 40°40' W 073°60'0 0.0
2017-Oct-10 16:30N 40°40' W 073°60'0 0.0
2017-Oct-10 16:00N 40°40' W 073°60'0 0.0
2017-Oct-10 15:30N 40°40' W 073°60'0 0.0
2017-Oct-10 15:00N 40°40' W 073°60'0 0.0
2017-Oct-10 14:00N 40°40' W 073°60'0 0.0
2017-Oct-10 13:30N 40°40' W 073°60'0 0.0
2017-Oct-10 13:00N 40°40' W 073°60'0 0.0
2017-Oct-10 12:30N 40°40' W 073°60'0 0.0
2017-Oct-10 12:00N 40°40' W 073°60'0 0.0
2017-Oct-10 11:30N 40°40' W 073°60'0 0.0
2017-Oct-10 11:00N 40°40' W 073°60'0 0.0
2017-Oct-10 10:30N 40°40' W 073°60'0 0.0
2017-Oct-10 10:00N 40°40' W 073°60'0 0.0
2017-Oct-10 09:30N 40°40' W 073°60'0 0.0
2017-Oct-10 09:00N 40°40' W 073°60'0 0.0
2017-Oct-10 08:30N 40°40' W 073°60'0 0.0
2017-Oct-10 08:00N 40°40' W 073°60'0 0.0
2017-Oct-10 07:30N 40°40' W 073°60'0 0.0
2017-Oct-10 07:00N 40°40' W 073°60'0 0.0
2017-Oct-10 06:30N 40°40' W 073°60'0 0.0
2017-Oct-10 06:00N 40°40' W 073°60'0 0.0
2017-Oct-10 05:30N 40°40' W 073°60'0 0.0
2017-Oct-10 05:00N 40°40' W 073°60'0 0.0
2017-Oct-10 04:30N 40°40' W 073°60'0 0.0
2017-Oct-10 04:00N 40°40' W 073°60'0 0.0
2017-Oct-10 03:30N 40°40' W 073°60'0 0.0
2017-Oct-10 03:00N 40°40' W 073°60'0 0.0
2017-Oct-10 02:30N 40°40' W 073°60'0 0.0
2017-Oct-10 02:00N 40°40' W 073°60'0 0.0
2017-Oct-10 01:30N 40°40' W 073°60'0 0.0
2017-Oct-10 01:00N 40°40' W 073°60'0 0.0
2017-Oct-10 00:30N 40°40' W 073°60'0 0.0
2017-Oct-10 00:00N 40°40' W 073°60'0 0.0
2017-Oct-09 23:30N 40°40' W 073°60'0 0.0
2017-Oct-09 23:00N 40°40' W 073°60'0 0.0
2017-Oct-09 22:30N 40°40' W 073°60'0 0.0
2017-Oct-09 22:00N 40°40' W 073°60'0 0.0
2017-Oct-09 21:30N 40°40' W 073°60'0 0.0
2017-Oct-09 21:00N 40°40' W 073°60'0 0.0
2017-Oct-09 20:30N 40°40' W 073°60'0 0.0
2017-Oct-09 20:00N 40°40' W 073°60'0 0.0
2017-Oct-09 19:30N 40°40' W 073°60'0 0.0
2017-Oct-09 19:00N 40°40' W 073°60'0 0.0
2017-Oct-09 18:30N 40°40' W 073°60'0 0.0
2017-Oct-09 18:00N 40°40' W 073°60'  
Track history (hours):
 
Tides and Currents Weather Stations Pressure Air Temp Water Temp Dewpoint Dewpoint Depression Visibility Wind Speed Wind Dir Waves Ship Positions

Robert Burton

Owner: Norfolk Tug Company, Norfolk, VA. More information available from US FCC via Universal Licensing System and Coast Guard Vessel Documentation Center.

Last reported at 2017-Oct-19 18:00 UTC. Time now 2017-Oct-19 18:20 UTC.
Position N 40°39' W 074°06'.

Length 25 m; draft 3 m.

Type: Tug. MMSI: 367078850.

Date/timePositionNaut miles runAvg speedWind from/ knotsBaromVisibWave heightAir tempDewpointWater temp
2017-Oct-19 18:00N 40°39' W 074°06'3 6.3
2017-Oct-19 17:29N 40°39' W 074°10'2 3.2
2017-Oct-19 17:00N 40°38' W 074°12'0 0.0
2017-Oct-19 16:30N 40°38' W 074°12'0 0.0
2017-Oct-19 16:00N 40°38' W 074°12'0 0.0
2017-Oct-19 15:29N 40°38' W 074°12'0 0.0
2017-Oct-19 15:00N 40°38' W 074°12'0 0.0
2017-Oct-19 14:29N 40°38' W 074°12'0 0.0
2017-Oct-19 14:00N 40°38' W 074°12'0 0.0
2017-Oct-19 13:30N 40°38' W 074°12'0 0.0
2017-Oct-19 13:00N 40°38' W 074°12'0 0.0
2017-Oct-19 12:29N 40°38' W 074°12'0 0.0
2017-Oct-19 12:00N 40°38' W 074°12'0 0.0
2017-Oct-19 11:30N 40°38' W 074°12'0 0.0
2017-Oct-19 11:00N 40°38' W 074°12'0 0.0
2017-Oct-19 10:30N 40°38' W 074°12'0 0.0
2017-Oct-19 10:00N 40°38' W 074°12'0 0.0
2017-Oct-19 09:30N 40°38' W 074°12'0 0.0
2017-Oct-19 09:00N 40°38' W 074°12'0 0.0
2017-Oct-19 08:30N 40°38' W 074°12'0 0.0
2017-Oct-19 08:00N 40°38' W 074°12'0 0.0
2017-Oct-19 07:30N 40°38' W 074°12'0 0.0
2017-Oct-19 07:00N 40°38' W 074°12'0 0.0
2017-Oct-19 06:30N 40°38' W 074°12'0 0.0
2017-Oct-19 06:00N 40°38' W 074°12'0 0.0
2017-Oct-19 05:30N 40°38' W 074°12'0 0.0
2017-Oct-19 05:00N 40°38' W 074°12'0 0.0
2017-Oct-19 04:30N 40°38' W 074°12'0 0.0
2017-Oct-19 04:00N 40°38' W 074°12'0 0.0
2017-Oct-19 03:30N 40°38' W 074°12'0 0.0
2017-Oct-19 02:59N 40°38' W 074°12'0 0.0
2017-Oct-19 02:30N 40°38' W 074°12'0 0.0
2017-Oct-19 02:00N 40°38' W 074°12'0 0.0
2017-Oct-19 01:30N 40°38' W 074°12'0 0.0
2017-Oct-19 01:00N 40°38' W 074°12'0 0.0
2017-Oct-19 00:29N 40°38' W 074°12'0 0.0
2017-Oct-19 00:00N 40°38' W 074°12'0 0.0
2017-Oct-18 23:29N 40°38' W 074°12'0 0.0
2017-Oct-18 22:57N 40°38' W 074°12'0 0.0
2017-Oct-18 22:29N 40°38' W 074°12'0 0.0
2017-Oct-18 22:00N 40°38' W 074°12'0 0.0
2017-Oct-18 21:30N 40°38' W 074°12'0 0.0
2017-Oct-18 21:00N 40°38' W 074°12'0 0.0
2017-Oct-18 20:30N 40°38' W 074°12'0 0.0
2017-Oct-18 20:00N 40°38' W 074°12'0 0.0
2017-Oct-18 19:30N 40°38' W 074°12'2 3.9
2017-Oct-18 19:00N 40°39' W 074°09'2 4.8
2017-Oct-18 18:30N 40°39' W 074°06'2 3.3
2017-Oct-18 18:00N 40°39' W 074°04'2 4.7
2017-Oct-18 17:30N 40°40' W 074°01'1 1.9
2017-Oct-18 17:00N 40°40' W 073°60'0 0.0
2017-Oct-18 16:30N 40°40' W 073°60'0 0.0
2017-Oct-18 16:00N 40°40' W 073°60'0 0.0
2017-Oct-18 15:30N 40°40' W 073°60'0 0.0
2017-Oct-18 15:00N 40°40' W 073°60'0 0.0
2017-Oct-18 14:00N 40°40' W 073°60'0 0.0
2017-Oct-18 13:30N 40°40' W 073°60'0 0.0
2017-Oct-18 13:00N 40°40' W 073°60'0 0.0
2017-Oct-18 12:30N 40°40' W 073°60'0 0.0
2017-Oct-18 12:00N 40°40' W 073°60'0 0.0
2017-Oct-18 11:30N 40°40' W 073°60'0 0.0
2017-Oct-18 11:00N 40°40' W 073°60'0 0.0
2017-Oct-18 10:30N 40°40' W 073°60'0 0.0
2017-Oct-18 10:00N 40°40' W 073°60'0 0.0
2017-Oct-18 09:30N 40°40' W 073°60'0 0.0
2017-Oct-18 09:00N 40°40' W 073°60'0 0.0
2017-Oct-18 08:30N 40°40' W 073°60'0 0.0
2017-Oct-18 08:00N 40°40' W 073°60'0 0.0
2017-Oct-18 07:30N 40°40' W 073°60'0 0.0
2017-Oct-18 07:00N 40°40' W 073°60'0 0.0
2017-Oct-18 06:30N 40°40' W 073°60'0 0.0
2017-Oct-18 06:00N 40°40' W 073°60'0 0.0
2017-Oct-18 05:30N 40°40' W 073°60'0 0.0
2017-Oct-18 05:00N 40°40' W 073°60'0 0.0
2017-Oct-18 04:30N 40°40' W 073°60'0 0.0
2017-Oct-18 04:00N 40°40' W 073°60'0 0.0
2017-Oct-18 03:30N 40°40' W 073°60'0 0.0
2017-Oct-18 03:00N 40°40' W 073°60'0 0.0
2017-Oct-18 02:30N 40°40' W 073°60'0 0.0
2017-Oct-18 02:00N 40°40' W 073°60'0 0.0
2017-Oct-18 01:31N 40°40' W 073°60'0 0.1
2017-Oct-18 01:00N 40°40' W 073°60'0 0.0
2017-Oct-18 00:30N 40°40' W 073°60'0 0.0
2017-Oct-18 00:00N 40°40' W 073°60'2 3.0
2017-Oct-17 23:30N 40°39' W 074°02'3 6.0
2017-Oct-17 23:00N 40°39' W 074°05'3 5.7
2017-Oct-17 22:24N 40°39' W 074°10'1 3.6
2017-Oct-17 22:00N 40°38' W 074°12'0 0.1
2017-Oct-17 21:30N 40°38' W 074°12'0 0.1
2017-Oct-17 21:00N 40°38' W 074°12'0 0.0
2017-Oct-17 20:30N 40°38' W 074°12'0 0.0
2017-Oct-17 20:00N 40°38' W 074°12'0 0.0
2017-Oct-17 19:30N 40°38' W 074°12'0 0.0
2017-Oct-17 19:00N 40°38' W 074°12'0 0.0
2017-Oct-17 18:30N 40°38' W 074°12'2 4.1
2017-Oct-17 18:00N 40°39' W 074°09'2 4.7
2017-Oct-17 17:30N 40°39' W 074°06'2 4.3
2017-Oct-17 17:00N 40°39' W 074°03'3 5.0
2017-Oct-17 16:30N 40°40' W 074°00'0 0.7
2017-Oct-17 16:00N 40°40' W 073°60'0 0.0
2017-Oct-17 15:30N 40°40' W 073°60'0 0.0
2017-Oct-17 15:00N 40°40' W 073°60'0 0.0
2017-Oct-17 14:30N 40°40' W 073°60'0 0.0
2017-Oct-17 14:00N 40°40' W 073°60'0 0.0
2017-Oct-17 13:30N 40°40' W 073°60'0 0.0
2017-Oct-17 13:00N 40°40' W 073°60'0 0.0
2017-Oct-17 12:30N 40°40' W 073°60'0 0.0
2017-Oct-17 12:00N 40°40' W 073°60'0 0.0
2017-Oct-17 11:30N 40°40' W 073°60'0 0.0
2017-Oct-17 11:00N 40°40' W 073°60'0 0.0
2017-Oct-17 10:30N 40°40' W 073°60'0 0.0
2017-Oct-17 10:00N 40°40' W 073°60'0 0.0
2017-Oct-17 09:30N 40°40' W 073°60'0 0.0
2017-Oct-17 09:00N 40°40' W 073°60'0 0.0
2017-Oct-17 08:30N 40°40' W 073°60'0 0.0
2017-Oct-17 08:00N 40°40' W 073°60'0 0.0
2017-Oct-17 07:30N 40°40' W 073°60'0 0.0
2017-Oct-17 07:00N 40°40' W 073°60'0 0.0
2017-Oct-17 06:30N 40°40' W 073°60'0 0.0
2017-Oct-17 06:00N 40°40' W 073°60'0 0.0
2017-Oct-17 05:30N 40°40' W 073°60'0 0.0
2017-Oct-17 05:00N 40°40' W 073°60'0 0.0
2017-Oct-17 04:30N 40°40' W 073°60'0 0.0
2017-Oct-17 04:00N 40°40' W 073°60'0 0.0
2017-Oct-17 03:30N 40°40' W 073°60'0 0.0
2017-Oct-17 03:00N 40°40' W 073°60'0 0.0
2017-Oct-17 02:30N 40°40' W 073°60'0 0.0
2017-Oct-17 02:00N 40°40' W 073°60'0 0.0
2017-Oct-17 01:30N 40°40' W 073°60'0 0.0
2017-Oct-17 01:00N 40°40' W 073°60'0 0.0
2017-Oct-17 00:30N 40°40' W 073°60'0 0.0
2017-Oct-17 00:00N 40°40' W 073°60'0 0.0
2017-Oct-16 23:30N 40°40' W 073°60'0 0.0
2017-Oct-16 23:00N 40°40' W 073°60'0 0.0
2017-Oct-16 22:30N 40°40' W 073°60'0 0.0
2017-Oct-16 22:00N 40°40' W 073°60'0 0.0
2017-Oct-16 21:30N 40°40' W 073°60'0 0.0
2017-Oct-16 21:00N 40°40' W 073°60'1 2.3
2017-Oct-16 20:30N 40°40' W 074°01'3 5.6
2017-Oct-16 20:00N 40°39' W 074°05'2 4.4
2017-Oct-16 19:28N 40°39' W 074°08'2 5.2
2017-Oct-16 18:59N 40°39' W 074°11'1 1.3
2017-Oct-16 18:30N 40°38' W 074°12'0 0.0
2017-Oct-16 18:00N 40°38' W 074°12'0 0.0
2017-Oct-16 17:30N 40°38' W 074°12'0 0.0
2017-Oct-16 17:00N 40°38' W 074°12'0 0.0
2017-Oct-16 16:30N 40°38' W 074°12'0 0.0
2017-Oct-16 16:00N 40°38' W 074°12'0 0.0
2017-Oct-16 15:29N 40°38' W 074°12'0 0.0
2017-Oct-16 15:00N 40°38' W 074°12'0 0.0
2017-Oct-16 14:00N 40°38' W 074°12'0 0.0
2017-Oct-16 13:30N 40°38' W 074°12'0 0.0
2017-Oct-16 13:00N 40°38' W 074°12'0 0.0
2017-Oct-16 12:30N 40°38' W 074°12'0 0.0
2017-Oct-16 12:00N 40°38' W 074°12'0 0.0
2017-Oct-16 11:30N 40°38' W 074°12'0 0.0
2017-Oct-16 11:00N 40°38' W 074°12'0 0.0
2017-Oct-16 10:30N 40°38' W 074°12'0 0.0
2017-Oct-16 10:00N 40°38' W 074°12'0 0.0
2017-Oct-16 09:30N 40°38' W 074°12'0 0.0
2017-Oct-16 09:00N 40°38' W 074°12'0 0.0
2017-Oct-16 08:30N 40°38' W 074°12'0 0.0
2017-Oct-16 08:00N 40°38' W 074°12'0 0.0
2017-Oct-16 07:30N 40°38' W 074°12'0 0.0
2017-Oct-16 07:00N 40°38' W 074°12'0 0.0
2017-Oct-16 06:30N 40°38' W 074°12'0 0.0
2017-Oct-16 06:00N 40°38' W 074°12'0 0.0
2017-Oct-16 05:30N 40°38' W 074°12'0 0.0
2017-Oct-16 05:00N 40°38' W 074°12'0 0.0
2017-Oct-16 04:30N 40°38' W 074°12'0 0.0
2017-Oct-16 04:00N 40°38' W 074°12'0 0.0
2017-Oct-16 03:30N 40°38' W 074°12'0 0.0
2017-Oct-16 03:00N 40°38' W 074°12'0 0.0
2017-Oct-16 02:29N 40°38' W 074°12'0 0.0
2017-Oct-16 02:00N 40°38' W 074°12'0 0.0
2017-Oct-16 01:30N 40°38' W 074°12'0 0.4
2017-Oct-16 01:00N 40°38' W 074°12'0 0.0
2017-Oct-16 00:30N 40°38' W 074°12'0 0.0
2017-Oct-16 00:00N 40°38' W 074°12'0 0.0
2017-Oct-15 23:30N 40°38' W 074°12'0 0.0
2017-Oct-15 23:00N 40°38' W 074°12'0 0.0
2017-Oct-15 22:30N 40°38' W 074°12'0 0.0
2017-Oct-15 22:00N 40°38' W 074°12'0 0.0
2017-Oct-15 21:30N 40°38' W 074°12'0 0.0
2017-Oct-15 21:00N 40°38' W 074°12'0 0.0
2017-Oct-15 20:29N 40°38' W 074°12'0 0.0
2017-Oct-15 20:00N 40°38' W 074°12'0 0.0
2017-Oct-15 19:30N 40°38' W 074°12'0 0.0
2017-Oct-15 19:00N 40°38' W 074°12'0 0.0
2017-Oct-15 18:30N 40°38' W 074°12'0 0.0
2017-Oct-15 18:00N 40°38' W 074°12'0 0.0
2017-Oct-15 17:29N 40°38' W 074°12'0 0.0
2017-Oct-15 17:00N 40°38' W 074°12'0 0.0
2017-Oct-15 16:30N 40°38' W 074°12'0 0.0
2017-Oct-15 16:00N 40°38' W 074°12'0 0.0
2017-Oct-15 15:30N 40°38' W 074°12'0 0.0
2017-Oct-15 15:00N 40°38' W 074°12'0 0.0
2017-Oct-15 14:00N 40°38' W 074°12'0 0.0
2017-Oct-15 13:30N 40°38' W 074°12'0 0.0
2017-Oct-15 13:00N 40°38' W 074°12'0 0.0
2017-Oct-15 12:30N 40°38' W 074°12'0 0.0
2017-Oct-15 12:00N 40°38' W 074°12'0 0.4
2017-Oct-15 11:30N 40°38' W 074°12'0 0.0
2017-Oct-15 11:00N 40°38' W 074°12'0 0.0
2017-Oct-15 10:30N 40°38' W 074°12'0 0.0
2017-Oct-15 10:00N 40°38' W 074°12'0 0.0
2017-Oct-15 09:30N 40°38' W 074°12'0 0.0
2017-Oct-15 09:00N 40°38' W 074°12'0 0.0
2017-Oct-15 08:30N 40°38' W 074°12'0 0.0
2017-Oct-15 08:00N 40°38' W 074°12'0 0.0
2017-Oct-15 07:30N 40°38' W 074°12'0 0.0
2017-Oct-15 07:00N 40°38' W 074°12'0 0.0
2017-Oct-15 06:30N 40°38' W 074°12'0 0.0
2017-Oct-15 06:00N 40°38' W 074°12'0 0.0
2017-Oct-15 05:30N 40°38' W 074°12'0 0.0
2017-Oct-15 05:00N 40°38' W 074°12'0 0.0
2017-Oct-15 04:30N 40°38' W 074°12'0 0.0
2017-Oct-15 04:00N 40°38' W 074°12'0 0.0
2017-Oct-15 03:30N 40°38' W 074°12'0 0.0
2017-Oct-15 03:00N 40°38' W 074°12'0 0.0
2017-Oct-15 02:30N 40°38' W 074°12'0 0.0
2017-Oct-15 02:00N 40°38' W 074°12'0 0.0
2017-Oct-15 01:30N 40°38' W 074°12'0 0.0
2017-Oct-15 01:00N 40°38' W 074°12'0 0.0
2017-Oct-15 00:30N 40°38' W 074°12'0 0.0
2017-Oct-15 00:00N 40°38' W 074°12'0 0.0
2017-Oct-14 23:30N 40°38' W 074°12'0 0.0
2017-Oct-14 23:00N 40°38' W 074°12'0 0.0
2017-Oct-14 22:29N 40°38' W 074°12'0 0.0
2017-Oct-14 22:00N 40°38' W 074°12'0 0.0
2017-Oct-14 21:30N 40°38' W 074°12'0 0.0
2017-Oct-14 20:59N 40°38' W 074°12'0 0.0
2017-Oct-14 20:30N 40°38' W 074°12'0 0.0
2017-Oct-14 20:00N 40°38' W 074°12'0 0.0
2017-Oct-14 19:29N 40°38' W 074°12'0 0.0
2017-Oct-14 19:00N 40°38' W 074°12'1 2.6
2017-Oct-14 18:30N 40°39' W 074°10'5 9.1
2017-Oct-14 18:00N 40°39' W 074°04'4 8.4
2017-Oct-14 17:30N 40°36' W 074°01'0 0.9
2017-Oct-14 17:00N 40°36' W 074°02'4 8.0
2017-Oct-14 16:30N 40°39' W 074°05'3 7.0
2017-Oct-14 16:00N 40°39' W 074°09'2 4.0
2017-Oct-14 15:30N 40°38' W 074°12'1 2.1
2017-Oct-14 15:00N 40°39' W 074°11'2 4.8
2017-Oct-14 14:30N 40°39' W 074°08'2 4.6
2017-Oct-14 14:00N 40°39' W 074°05'2 4.8
2017-Oct-14 13:30N 40°40' W 074°01'1 2.6
2017-Oct-14 13:00N 40°40' W 073°60'0 0.0
2017-Oct-14 12:30N 40°40' W 073°60'0 0.0
2017-Oct-14 12:00N 40°40' W 073°60'0 0.0
2017-Oct-14 11:30N 40°40' W 073°60'0 0.0
2017-Oct-14 11:00N 40°40' W 073°60'0 0.0
2017-Oct-14 10:30N 40°40' W 073°60'0 0.0
2017-Oct-14 10:00N 40°40' W 073°60'0 0.0
2017-Oct-14 09:30N 40°40' W 073°60'0 0.0
2017-Oct-14 09:00N 40°40' W 073°60'0 0.0
2017-Oct-14 08:30N 40°40' W 073°60'0 0.0
2017-Oct-14 08:00N 40°40' W 073°60'0 0.0
2017-Oct-14 07:30N 40°40' W 073°60'0 0.0
2017-Oct-14 07:00N 40°40' W 073°60'0 0.0
2017-Oct-14 06:30N 40°40' W 073°60'0 0.0
2017-Oct-14 06:00N 40°40' W 073°60'0 0.0
2017-Oct-14 05:30N 40°40' W 073°60'0 0.0
2017-Oct-14 05:00N 40°40' W 073°60'0 0.0
2017-Oct-14 04:30N 40°40' W 073°60'0 0.0
2017-Oct-14 04:00N 40°40' W 073°60'0 0.0
2017-Oct-14 03:30N 40°40' W 073°60'0 0.0
2017-Oct-14 03:00N 40°40' W 073°60'0 0.0
2017-Oct-14 02:30N 40°40' W 073°60'0 0.0
2017-Oct-14 01:57N 40°40' W 073°60'0 0.0
2017-Oct-14 01:29N 40°40' W 073°60'0 0.0
2017-Oct-14 00:58N 40°40' W 073°60'0 0.0
2017-Oct-14 00:29N 40°40' W 073°60'0 0.0
2017-Oct-13 23:59N 40°40' W 073°60'0 0.0
2017-Oct-13 23:30N 40°40' W 073°60'0 0.0
2017-Oct-13 23:00N 40°40' W 073°60'0 0.0
2017-Oct-13 22:30N 40°40' W 073°60'0 0.0
2017-Oct-13 22:00N 40°40' W 073°60'0 0.0
2017-Oct-13 21:30N 40°40' W 073°60'1 1.3
2017-Oct-13 21:00N 40°40' W 074°01'3 5.2
2017-Oct-13 20:28N 40°39' W 074°04'3 6.0
2017-Oct-13 20:00N 40°39' W 074°08'3 6.0
2017-Oct-13 19:30N 40°38' W 074°12'0 0.2
2017-Oct-13 19:00N 40°38' W 074°12'0 0.1
2017-Oct-13 18:30N 40°38' W 074°12'0 0.0
2017-Oct-13 18:00N 40°38' W 074°12'0 0.0
2017-Oct-13 17:30N 40°38' W 074°12'0 0.0
2017-Oct-13 17:00N 40°38' W 074°12'0 0.0
2017-Oct-13 16:30N 40°38' W 074°12'0 0.0
2017-Oct-13 15:58N 40°38' W 074°12'0 0.0
2017-Oct-13 15:30N 40°38' W 074°12'0 0.0
2017-Oct-13 15:00N 40°38' W 074°12'0 0.0
2017-Oct-13 14:30N 40°38' W 074°12'0 0.0
2017-Oct-13 14:00N 40°38' W 074°12'0 0.0
2017-Oct-13 13:30N 40°38' W 074°12'0 0.0
2017-Oct-13 13:00N 40°38' W 074°12'0 0.0
2017-Oct-13 12:30N 40°38' W 074°12'0 0.0
2017-Oct-13 12:00N 40°38' W 074°12'0 0.0
2017-Oct-13 11:30N 40°38' W 074°12'0 0.0
2017-Oct-13 11:00N 40°38' W 074°12'0 0.0
2017-Oct-13 10:30N 40°38' W 074°12'0 0.0
2017-Oct-13 10:00N 40°38' W 074°12'0 0.0
2017-Oct-13 09:30N 40°38' W 074°12'0 0.0
2017-Oct-13 09:00N 40°38' W 074°12'0 0.0
2017-Oct-13 08:29N 40°38' W 074°12'0 0.0
2017-Oct-13 08:00N 40°38' W 074°12'0 0.0
2017-Oct-13 07:30N 40°38' W 074°12'0 0.0
2017-Oct-13 07:00N 40°38' W 074°12'0 0.0
2017-Oct-13 06:30N 40°38' W 074°12'0 0.0
2017-Oct-13 06:00N 40°38' W 074°12'0 0.0
2017-Oct-13 05:30N 40°38' W 074°12'0 0.0
2017-Oct-13 05:00N 40°38' W 074°12'0 0.0
2017-Oct-13 04:30N 40°38' W 074°12'0 0.0
2017-Oct-13 04:00N 40°38' W 074°12'0 0.0
2017-Oct-13 03:30N 40°38' W 074°12'0 0.0
2017-Oct-13 02:57N 40°38' W 074°12'0 0.0
2017-Oct-13 02:30N 40°38' W 074°12'0 0.0
2017-Oct-13 01:59N 40°38' W 074°12'0 0.0
2017-Oct-13 01:24N 40°38' W 074°12'0 0.0
2017-Oct-13 01:00N 40°38' W 074°12'1 2.1
2017-Oct-13 00:30N 40°39' W 074°11'2 4.4
2017-Oct-13 00:00N 40°39' W 074°08'2 3.8
2017-Oct-12 23:30N 40°39' W 074°05'2 3.7
2017-Oct-12 23:00N 40°39' W 074°03'2 5.0
2017-Oct-12 22:30N 40°40' W 073°60'0 0.0
2017-Oct-12 22:00N 40°40' W 073°60'0 0.0
2017-Oct-12 21:30N 40°40' W 073°60'0 0.0
2017-Oct-12 21:00N 40°40' W 073°60'0 0.0
2017-Oct-12 20:30N 40°40' W 073°60'0 0.0
2017-Oct-12 20:00N 40°40' W 073°60'0 0.0
2017-Oct-12 19:30N 40°40' W 073°60'0 0.0
2017-Oct-12 19:00N 40°40' W 073°60'0 0.0
2017-Oct-12 18:30N 40°40' W 073°60'0 0.1
2017-Oct-12 18:00N 40°40' W 073°60'0 0.0
2017-Oct-12 17:30N 40°40' W 073°60'1 2.2
2017-Oct-12 17:00N 40°40' W 074°01'3 5.3
2017-Oct-12 16:30N 40°39' W 074°05'2 4.2
2017-Oct-12 15:58N 40°39' W 074°07'3 4.9
2017-Oct-12 15:25N 40°39' W 074°11'1 1.8
2017-Oct-12 14:59N 40°38' W 074°12'0 0.0
2017-Oct-12 14:30N 40°38' W 074°12'0 0.0
2017-Oct-12 14:00N 40°38' W 074°12'0 0.0
2017-Oct-12 13:30N 40°38' W 074°12'0 0.0
2017-Oct-12 13:00N 40°38' W 074°12'0 0.0
2017-Oct-12 12:30N 40°38' W 074°12'0 0.0
2017-Oct-12 12:00N 40°38' W 074°12'0 0.0
2017-Oct-12 11:30N 40°38' W 074°12'0 0.0
2017-Oct-12 11:00N 40°38' W 074°12'0 0.0
2017-Oct-12 10:30N 40°38' W 074°12'0 0.0
2017-Oct-12 10:00N 40°38' W 074°12'0 0.0
2017-Oct-12 09:30N 40°38' W 074°12'0 0.0
2017-Oct-12 09:00N 40°38' W 074°12'0 0.0
2017-Oct-12 08:30N 40°38' W 074°12'0 0.0
2017-Oct-12 08:00N 40°38' W 074°12'0 0.0
2017-Oct-12 07:30N 40°38' W 074°12'0 0.0
2017-Oct-12 07:00N 40°38' W 074°12'0 0.0
2017-Oct-12 06:30N 40°38' W 074°12'0 0.0
2017-Oct-12 06:00N 40°38' W 074°12'0 0.0
2017-Oct-12 05:30N 40°38' W 074°12'0 0.0
2017-Oct-12 05:00N 40°38' W 074°12'0 0.0
2017-Oct-12 04:30N 40°38' W 074°12'0 0.0
2017-Oct-12 04:00N 40°38' W 074°12'0 0.0
2017-Oct-12 03:30N 40°38' W 074°12'0 0.0
2017-Oct-12 03:00N 40°38' W 074°12'0 0.0
2017-Oct-12 02:30N 40°38' W 074°12'0 0.0
2017-Oct-12 02:00N 40°38' W 074°12'0 0.0
2017-Oct-12 01:30N 40°38' W 074°12'0 0.0
2017-Oct-12 01:00N 40°38' W 074°12'0 0.0
2017-Oct-12 00:30N 40°38' W 074°12'0 0.1
2017-Oct-12 00:00N 40°38' W 074°12'2 4.4
2017-Oct-11 23:30N 40°39' W 074°09'2 4.3
2017-Oct-11 23:00N 40°39' W 074°06'2 4.2
2017-Oct-11 22:29N 40°39' W 074°03'3 5.1
2017-Oct-11 22:00N 40°40' W 074°00'0 0.5
2017-Oct-11 21:30N 40°40' W 073°60'0 0.0
2017-Oct-11 21:00N 40°40' W 073°60'0 0.0
2017-Oct-11 20:30N 40°40' W 073°60'0 0.0
2017-Oct-11 20:00N 40°40' W 073°60'0 0.0
2017-Oct-11 19:30N 40°40' W 073°60'0 0.0
2017-Oct-11 19:00N 40°40' W 073°60'0 0.0
2017-Oct-11 18:30N 40°40' W 073°60'0 0.0
2017-Oct-11 18:00N 40°40' W 073°60'0 0.0
2017-Oct-11 17:30N 40°40' W 073°60'0 0.0
2017-Oct-11 17:00N 40°40' W 073°60'9 0.5
2017-Oct-11 00:00N 40°38' W 074°12'0 0.0
2017-Oct-10 23:30N 40°38' W 074°12'0 0.0
2017-Oct-10 23:00N 40°38' W 074°12'0 0.0
2017-Oct-10 22:30N 40°38' W 074°12'0 0.0
2017-Oct-10 22:00N 40°38' W 074°12'0 0.0
2017-Oct-10 21:30N 40°38' W 074°12'0 0.1
2017-Oct-10 20:59N 40°38' W 074°12'0 0.0
2017-Oct-10 20:30N 40°38' W 074°12'0 0.0
2017-Oct-10 20:00N 40°38' W 074°12'1 1.3
2017-Oct-10 19:30N 40°39' W 074°11'2 4.6
2017-Oct-10 19:00N 40°39' W 074°08'2 3.7
2017-Oct-10 18:30N 40°39' W 074°06'2 3.8
2017-Oct-10 18:00N 40°39' W 074°03'2 4.5
2017-Oct-10 17:30N 40°40' W 074°01'1 1.2
2017-Oct-10 17:01N 40°40' W 073°60'0 0.0
2017-Oct-10 16:30N 40°40' W 073°60'0 0.0
2017-Oct-10 16:00N 40°40' W 073°60'0 0.0
2017-Oct-10 15:30N 40°40' W 073°60'0 0.0
2017-Oct-10 15:00N 40°40' W 073°60'0 0.0
2017-Oct-10 14:00N 40°40' W 073°60'0 0.0
2017-Oct-10 13:30N 40°40' W 073°60'0 0.0
2017-Oct-10 13:00N 40°40' W 073°60'0 0.0
2017-Oct-10 12:30N 40°40' W 073°60'0 0.0
2017-Oct-10 12:00N 40°40' W 073°60'0 0.0
2017-Oct-10 11:30N 40°40' W 073°60'0 0.0
2017-Oct-10 11:00N 40°40' W 073°60'0 0.0
2017-Oct-10 10:30N 40°40' W 073°60'0 0.0
2017-Oct-10 10:00N 40°40' W 073°60'0 0.0
2017-Oct-10 09:30N 40°40' W 073°60'0 0.0
2017-Oct-10 09:00N 40°40' W 073°60'0 0.0
2017-Oct-10 08:30N 40°40' W 073°60'0 0.0
2017-Oct-10 08:00N 40°40' W 073°60'0 0.0
2017-Oct-10 07:30N 40°40' W 073°60'0 0.0
2017-Oct-10 07:00N 40°40' W 073°60'0 0.0
2017-Oct-10 06:30N 40°40' W 073°60'0 0.0
2017-Oct-10 06:00N 40°40' W 073°60'0 0.0
2017-Oct-10 05:30N 40°40' W 073°60'0 0.0
2017-Oct-10 05:00N 40°40' W 073°60'0 0.0
2017-Oct-10 04:30N 40°40' W 073°60'0 0.0
2017-Oct-10 04:00N 40°40' W 073°60'0 0.0
2017-Oct-10 03:30N 40°40' W 073°60'0 0.0
2017-Oct-10 03:00N 40°40' W 073°60'0 0.0
2017-Oct-10 02:30N 40°40' W 073°60'0 0.0
2017-Oct-10 02:00N 40°40' W 073°60'0 0.0
2017-Oct-10 01:30N 40°40' W 073°60'0 0.0
2017-Oct-10 01:00N 40°40' W 073°60'0 0.0
2017-Oct-10 00:30N 40°40' W 073°60'0 0.0
2017-Oct-10 00:00N 40°40' W 073°60'0 0.0
2017-Oct-09 23:30N 40°40' W 073°60'0 0.0
2017-Oct-09 23:00N 40°40' W 073°60'0 0.0
2017-Oct-09 22:30N 40°40' W 073°60'0 0.0
2017-Oct-09 22:00N 40°40' W 073°60'0 0.0
2017-Oct-09 21:30N 40°40' W 073°60'0 0.0
2017-Oct-09 21:00N 40°40' W 073°60'0 0.0
2017-Oct-09 20:30N 40°40' W 073°60'0 0.0
2017-Oct-09 20:00N 40°40' W 073°60'0 0.0
2017-Oct-09 19:30N 40°40' W 073°60'0 0.0
2017-Oct-09 19:00N 40°40' W 073°60'0 0.0
2017-Oct-09 18:30N 40°40' W 073°60'0 0.0
2017-Oct-09 18:00N 40°40' W 073°60'  

Dump ship's entire track history